Time;durP1;ratioP1;P1;durP2;ratioP2;P2;SDS_P1;SDS_P2;PMS_P1;PMS_P2;Temp;Humidity;BMP_temperature;BMP_pressure;BME280_temperature;BME280_humidity;BME280_pressure;Samples;Min_cycle;Max_cycle;Signal;HPM_P1;HPM_P2
2023/12/21 00:02:18;;;;;;;11.53;11.13;;;5.20;99.90;;;;;;5122389;27;20228;-80
2023/12/21 00:04:45;;;;;;;11.43;11.03;;;5.20;99.90;;;;;;5122594;27;20271;-79
2023/12/21 00:07:14;;;;;;;11.30;10.90;;;5.20;99.90;;;;;;5131513;28;20236;-80
2023/12/21 00:09:41;;;;;;;11.40;11.00;;;5.20;99.90;;;;;;5116368;28;20237;-80
2023/12/21 00:12:08;;;;;;;11.43;11.03;;;5.20;99.90;;;;;;5105148;28;20237;-80
2023/12/21 00:14:36;;;;;;;11.30;10.90;;;5.20;99.90;;;;;;5123522;28;20229;-80
2023/12/21 00:17:04;;;;;;;11.43;11.03;;;5.20;99.90;;;;;;5125010;28;20233;-80
2023/12/21 00:19:31;;;;;;;11.40;11.00;;;5.20;99.90;;;;;;5124920;28;20235;-81
2023/12/21 00:21:58;;;;;;;10.73;10.43;;;5.20;99.90;;;;;;5105030;28;20244;-80
2023/12/21 00:24:27;;;;;;;11.50;11.10;;;5.20;99.90;;;;;;5112412;28;20221;-80
2023/12/21 00:26:55;;;;;;;12.00;11.60;;;5.20;99.90;;;;;;5111682;28;20230;-81
2023/12/21 00:29:22;;;;;;;11.73;11.33;;;5.10;99.90;;;;;;5108499;28;20237;-82
2023/12/21 00:31:50;;;;;;;11.83;11.43;;;5.10;99.90;;;;;;5109324;28;20239;-79
2023/12/21 00:34:17;;;;;;;11.00;10.70;;;5.10;99.90;;;;;;5108389;28;20222;-79
2023/12/21 00:36:47;;;;;;;11.30;10.90;;;5.10;99.90;;;;;;5110272;28;20241;-79
2023/12/21 00:39:14;;;;;;;11.80;11.40;;;5.10;99.90;;;;;;5107357;28;20224;-79
2023/12/21 00:41:43;;;;;;;11.33;10.93;;;5.10;99.90;;;;;;5104487;28;20233;-79
2023/12/21 00:44:10;;;;;;;11.80;11.40;;;5.10;99.90;;;;;;5104580;28;20220;-80
2023/12/21 00:46:37;;;;;;;11.37;10.97;;;5.10;99.90;;;;;;5113380;28;20236;-80
2023/12/21 00:49:05;;;;;;;11.10;10.80;;;5.00;99.90;;;;;;5112260;28;20241;-80
2023/12/21 00:51:34;;;;;;;11.77;11.37;;;5.00;99.90;;;;;;5121242;28;20231;-80
2023/12/21 00:54:01;;;;;;;11.20;10.90;;;5.00;99.90;;;;;;5103918;28;20279;-79
2023/12/21 00:56:30;;;;;;;11.33;10.93;;;5.00;99.90;;;;;;5104293;28;20244;-79
2023/12/21 00:59:04;;;;;;;11.27;10.87;;;5.00;99.90;;;;;;5104493;28;20268;-83
2023/12/21 01:01:31;;;;;;;11.10;10.80;;;5.00;99.90;;;;;;5125173;28;20220;-80
2023/12/21 01:03:58;;;;;;;10.90;10.60;;;5.00;99.90;;;;;;5123965;28;20292;-80
2023/12/21 01:06:26;;;;;;;10.80;10.50;;;5.00;99.90;;;;;;5125141;28;20224;-80
2023/12/21 01:08:53;;;;;;;10.90;10.60;;;5.00;99.90;;;;;;5124798;28;20232;-80
2023/12/21 01:11:21;;;;;;;11.00;10.70;;;5.00;99.90;;;;;;5123974;28;20209;-79
2023/12/21 01:13:48;;;;;;;11.07;10.77;;;5.00;99.90;;;;;;5120364;28;20216;-80
2023/12/21 01:16:17;;;;;;;10.90;10.60;;;5.00;99.90;;;;;;5109812;28;20233;-79
2023/12/21 01:18:44;;;;;;;10.80;10.50;;;5.00;99.90;;;;;;5113828;28;20251;-79
2023/12/21 01:21:12;;;;;;;11.20;10.80;;;5.00;99.90;;;;;;5117513;28;20229;-83
2023/12/21 01:23:39;;;;;;;11.20;10.80;;;5.10;99.90;;;;;;5123905;28;20239;-81
2023/12/21 01:26:06;;;;;;;10.63;10.33;;;5.10;99.90;;;;;;5124941;28;20225;-79
2023/12/21 01:28:34;;;;;;;10.80;10.50;;;5.00;99.90;;;;;;5124814;28;20220;-79
2023/12/21 01:31:01;;;;;;;10.80;10.50;;;5.00;99.90;;;;;;5124214;28;20232;-79
2023/12/21 01:33:30;;;;;;;11.00;10.70;;;5.10;99.90;;;;;;5123914;28;20236;-79
2023/12/21 01:35:57;;;;;;;10.77;10.47;;;5.10;99.90;;;;;;5124582;28;20225;-79
2023/12/21 01:38:25;;;;;;;11.27;10.87;;;5.00;99.90;;;;;;5125104;28;20232;-79
2023/12/21 01:40:53;;;;;;;11.10;10.70;;;5.10;99.90;;;;;;5125402;28;20634;-79
2023/12/21 01:43:21;;;;;;;11.50;11.10;;;5.10;99.90;;;;;;5123758;28;20239;-79
2023/12/21 01:45:48;;;;;;;11.33;10.93;;;5.10;99.90;;;;;;5106115;28;20229;-80
2023/12/21 01:48:18;;;;;;;11.30;10.90;;;5.00;99.90;;;;;;5109302;28;20237;-80
2023/12/21 01:50:47;;;;;;;10.90;10.60;;;5.10;99.90;;;;;;5103709;28;20222;-81
2023/12/21 01:53:18;;;;;;;10.90;10.60;;;5.10;99.90;;;;;;5103041;28;20225;-81
2023/12/21 01:55:47;;;;;;;11.47;11.07;;;5.10;99.90;;;;;;5103403;28;20221;-81
2023/12/21 01:58:14;;;;;;;11.07;10.77;;;5.10;99.90;;;;;;5102723;28;20264;-82
2023/12/21 02:00:42;;;;;;;11.00;10.70;;;5.10;99.90;;;;;;5103528;28;20277;-81
2023/12/21 02:03:09;;;;;;;11.10;10.70;;;5.10;99.90;;;;;;5102447;28;20237;-81
2023/12/21 02:05:36;;;;;;;11.20;10.80;;;5.10;99.90;;;;;;5102232;28;20225;-82
2023/12/21 02:08:06;;;;;;;11.00;10.70;;;5.10;99.90;;;;;;5102567;28;20230;-81
2023/12/21 02:10:33;;;;;;;11.50;11.10;;;5.20;99.90;;;;;;5103423;28;20252;-81
2023/12/21 02:13:00;;;;;;;11.20;10.80;;;5.20;99.90;;;;;;5102789;28;20233;-81
2023/12/21 02:15:28;;;;;;;11.27;10.87;;;5.20;99.90;;;;;;5102785;28;20237;-81
2023/12/21 02:18:03;;;;;;;11.50;11.10;;;5.20;99.90;;;;;;5103133;28;20225;-81
2023/12/21 02:20:32;;;;;;;11.13;10.73;;;5.20;99.90;;;;;;5103312;28;20308;-81
2023/12/21 02:23:04;;;;;;;11.30;10.90;;;5.30;99.90;;;;;;5102658;28;20261;-81
2023/12/21 02:25:33;;;;;;;11.50;11.10;;;5.30;99.90;;;;;;5102519;28;20245;-81
2023/12/21 02:28:00;;;;;;;11.30;10.90;;;5.30;99.90;;;;;;5102344;28;20252;-81
2023/12/21 02:30:27;;;;;;;11.10;10.70;;;5.30;99.90;;;;;;5101888;28;20247;-81
2023/12/21 02:32:55;;;;;;;11.13;10.73;;;5.30;99.90;;;;;;5103905;28;20230;-80
2023/12/21 02:35:22;;;;;;;11.30;10.90;;;5.40;99.90;;;;;;5122712;28;20244;-81
2023/12/21 02:37:49;;;;;;;11.23;10.83;;;5.40;99.90;;;;;;5124789;28;20259;-81
2023/12/21 02:40:17;;;;;;;11.67;11.27;;;5.40;99.90;;;;;;5124599;28;20233;-82
2023/12/21 02:42:46;;;;;;;10.90;10.60;;;5.40;99.90;;;;;;5106307;28;20312;-82
2023/12/21 02:45:13;;;;;;;11.23;10.83;;;5.50;99.90;;;;;;5115333;28;20221;-82
2023/12/21 02:47:41;;;;;;;11.00;10.70;;;5.40;99.90;;;;;;5113672;28;20225;-82
2023/12/21 02:50:09;;;;;;;10.63;10.33;;;5.40;99.90;;;;;;5108706;28;20232;-81
2023/12/21 02:52:39;;;;;;;10.70;10.40;;;5.50;99.90;;;;;;5112418;28;20268;-81
2023/12/21 02:55:08;;;;;;;10.80;10.50;;;5.50;99.90;;;;;;5111660;28;20259;-80
2023/12/21 02:57:38;;;;;;;11.07;10.67;;;5.50;99.90;;;;;;5106592;28;20287;-81
2023/12/21 03:00:09;;;;;;;11.40;11.00;;;5.50;99.90;;;;;;5106735;28;20234;-81
2023/12/21 03:02:36;;;;;;;11.43;11.03;;;5.40;99.90;;;;;;5121749;28;20289;-81
2023/12/21 03:05:04;;;;;;;11.40;11.00;;;5.40;99.90;;;;;;5109434;28;20229;-81
2023/12/21 03:07:31;;;;;;;11.50;11.10;;;5.40;99.90;;;;;;5118950;28;20228;-81
2023/12/21 03:09:59;;;;;;;11.27;10.87;;;5.30;99.90;;;;;;5118708;28;20229;-81
2023/12/21 03:12:26;;;;;;;11.10;10.70;;;5.30;99.90;;;;;;5117513;28;20221;-82
2023/12/21 03:14:53;;;;;;;10.90;10.60;;;5.30;99.90;;;;;;5122854;28;20224;-81
2023/12/21 03:17:22;;;;;;;10.80;10.50;;;5.30;99.90;;;;;;5122760;28;20259;-82
2023/12/21 03:19:49;;;;;;;10.70;10.40;;;5.30;99.90;;;;;;5121949;28;20236;-80
2023/12/21 03:22:16;;;;;;;11.23;10.83;;;5.30;99.90;;;;;;5122348;28;20258;-79
2023/12/21 03:24:45;;;;;;;10.77;10.47;;;5.30;99.90;;;;;;5122882;28;20359;-79
2023/12/21 03:27:13;;;;;;;10.87;10.57;;;5.20;99.90;;;;;;5122591;28;20225;-81
2023/12/21 03:29:42;;;;;;;10.73;10.43;;;5.20;99.90;;;;;;5122396;28;20231;-82
2023/12/21 03:32:09;;;;;;;10.70;10.40;;;5.20;99.90;;;;;;5121856;28;20247;-78
2023/12/21 03:34:40;;;;;;;10.37;10.07;;;5.30;99.90;;;;;;5121713;28;20228;-79
2023/12/21 03:37:07;;;;;;;10.27;9.97;;;5.30;99.90;;;;;;5121686;28;20266;-79
2023/12/21 03:39:35;;;;;;;10.73;10.43;;;5.30;99.90;;;;;;5121232;28;20254;-82
2023/12/21 03:42:03;;;;;;;10.53;10.23;;;5.20;99.90;;;;;;5121641;28;20243;-82
2023/12/21 03:44:30;;;;;;;10.67;10.37;;;5.20;99.90;;;;;;5122421;28;20260;-81
2023/12/21 03:46:57;;;;;;;10.80;10.50;;;5.30;99.90;;;;;;5121382;28;20236;-82
2023/12/21 03:49:28;;;;;;;10.73;10.43;;;5.20;99.90;;;;;;5121765;28;20228;-81
2023/12/21 03:51:57;;;;;;;10.90;10.60;;;5.20;99.90;;;;;;5121664;28;20216;-81
2023/12/21 03:54:25;;;;;;;10.80;10.50;;;5.30;99.90;;;;;;5121357;28;20237;-81
2023/12/21 03:56:52;;;;;;;10.73;10.43;;;5.30;99.90;;;;;;5121590;28;20229;-81
2023/12/21 03:59:19;;;;;;;10.90;10.60;;;5.30;99.90;;;;;;5121276;28;20241;-82
2023/12/21 04:01:47;;;;;;;11.07;10.70;;;5.30;99.90;;;;;;5121894;28;20221;-82
2023/12/21 04:04:17;;;;;;;10.63;10.33;;;5.30;99.90;;;;;;5120492;28;20240;-82
2023/12/21 04:06:44;;;;;;;11.03;10.67;;;5.30;99.90;;;;;;5121582;28;20341;-83
2023/12/21 04:09:13;;;;;;;10.40;10.10;;;5.30;99.90;;;;;;5126837;28;20236;-81
2023/12/21 04:11:41;;;;;;;10.30;10.00;;;5.30;99.90;;;;;;5125798;28;20230;-81
2023/12/21 04:14:08;;;;;;;10.30;10.00;;;5.30;99.90;;;;;;5124223;28;20233;-82
2023/12/21 04:16:35;;;;;;;10.80;10.50;;;5.30;99.90;;;;;;5124182;27;20259;-81
2023/12/21 04:19:03;;;;;;;10.50;10.20;;;5.30;99.90;;;;;;5124311;28;20243;-80
2023/12/21 04:21:31;;;;;;;10.50;10.20;;;5.30;99.90;;;;;;5125318;28;20221;-80
2023/12/21 04:23:58;;;;;;;10.27;9.97;;;5.30;99.90;;;;;;5127256;28;20247;-81
2023/12/21 04:26:27;;;;;;;10.20;9.90;;;5.30;99.90;;;;;;5125984;28;20231;-81
2023/12/21 04:28:55;;;;;;;10.17;9.87;;;5.30;99.90;;;;;;5124528;28;20268;-80
2023/12/21 04:31:25;;;;;;;10.37;10.07;;;5.30;99.90;;;;;;5124662;28;20235;-81
2023/12/21 04:33:53;;;;;;;10.10;9.80;;;5.30;99.90;;;;;;5123726;28;20244;-81
2023/12/21 04:36:29;;;;;;;10.07;9.77;;;5.30;99.90;;;;;;5124582;28;20232;-81
2023/12/21 04:38:56;;;;;;;10.37;10.07;;;5.30;99.90;;;;;;5124147;28;20267;-81
2023/12/21 04:41:26;;;;;;;10.30;10.00;;;5.30;99.90;;;;;;5125121;28;20213;-82
2023/12/21 04:43:53;;;;;;;10.00;9.70;;;5.30;99.90;;;;;;5116069;28;20233;-82
2023/12/21 04:46:50;;;;;;;9.93;9.63;;;5.30;99.90;;;;;;5106894;28;20237;-83
2023/12/21 04:49:28;;;;;;;10.00;9.70;;;5.30;99.90;;;;;;5105533;28;20603;-82
2023/12/21 04:52:29;;;;;;;10.30;10.00;;;5.30;99.90;;;;;;5117762;28;20224;-83
2023/12/21 04:55:36;;;;;;;10.37;10.07;;;5.30;99.90;;;;;;5126495;28;20239;-83
2023/12/21 04:58:19;;;;;;;10.73;10.43;;;5.30;99.90;;;;;;5022518;28;20263;-83
2023/12/21 05:00:50;;;;;;;10.80;10.50;;;5.30;99.90;;;;;;5051695;28;20232;-83
2023/12/21 05:03:32;;;;;;;10.90;10.60;;;5.40;99.90;;;;;;5105174;28;20280;-83
2023/12/21 05:06:13;;;;;;;10.53;10.23;;;5.40;99.90;;;;;;5105500;28;20237;-83
2023/12/21 05:09:14;;;;;;;10.80;10.50;;;5.40;99.90;;;;;;5105113;28;20225;-83
2023/12/21 05:11:52;;;;;;;10.57;10.27;;;5.40;99.90;;;;;;5102976;28;20238;-83
2023/12/21 05:18:05;;;;;;;10.70;10.40;;;5.40;99.90;;;;;;5102342;28;20280;-83
2023/12/21 05:20:38;;;;;;;10.70;10.40;;;5.50;99.90;;;;;;5008298;28;20236;-83
2023/12/21 05:23:10;;;;;;;10.47;10.17;;;5.50;99.90;;;;;;5104364;28;20316;-83
2023/12/21 05:25:38;;;;;;;10.73;10.43;;;5.50;99.90;;;;;;5104706;28;20212;-82
2023/12/21 05:28:06;;;;;;;10.60;10.30;;;5.50;99.90;;;;;;5104261;28;20228;-82
2023/12/21 05:30:47;;;;;;;10.60;10.30;;;5.50;99.90;;;;;;5105302;28;20225;-83
2023/12/21 05:33:14;;;;;;;10.50;10.20;;;5.50;99.90;;;;;;5103502;28;20225;-81
2023/12/21 05:35:46;;;;;;;10.30;10.00;;;5.50;99.90;;;;;;5103516;28;20311;-82
2023/12/21 05:38:14;;;;;;;10.47;10.17;;;5.50;99.90;;;;;;5103175;28;20221;-82
2023/12/21 05:40:44;;;;;;;10.23;9.93;;;5.60;99.90;;;;;;5103299;28;20241;-82
2023/12/21 05:43:11;;;;;;;10.43;10.13;;;5.60;99.90;;;;;;5110335;28;20290;-82
2023/12/21 05:45:41;;;;;;;10.13;9.83;;;5.60;99.90;;;;;;5116941;28;20251;-82
2023/12/21 05:48:09;;;;;;;10.13;9.83;;;5.60;99.90;;;;;;5125321;28;20221;-83
2023/12/21 05:50:37;;;;;;;10.40;10.10;;;5.60;99.90;;;;;;5107834;28;20248;-82
2023/12/21 05:53:08;;;;;;;10.43;10.13;;;5.60;99.90;;;;;;5117512;28;20239;-82
2023/12/21 05:55:35;;;;;;;10.30;10.00;;;5.60;99.90;;;;;;5107613;28;20236;-83
2023/12/21 05:58:05;;;;;;;9.93;9.63;;;5.60;99.90;;;;;;5123532;28;21119;-82
2023/12/21 06:00:34;;;;;;;10.10;9.80;;;5.60;99.90;;;;;;5123155;28;20245;-82
2023/12/21 06:03:25;;;;;;;10.17;9.87;;;5.60;99.90;;;;;;5144127;22;20250;-88
2023/12/21 06:05:54;;;;;;;9.90;9.60;;;5.70;99.90;;;;;;5113478;28;20217;-88
2023/12/21 06:08:26;;;;;;;9.60;9.30;;;5.70;99.90;;;;;;5108956;28;20221;-88
2023/12/21 06:10:53;;;;;;;10.10;9.80;;;5.70;99.90;;;;;;5108418;28;20260;-86
2023/12/21 06:13:25;;;;;;;10.40;10.10;;;5.80;99.90;;;;;;5113316;28;20292;-88
2023/12/21 06:15:53;;;;;;;10.30;10.00;;;5.80;99.90;;;;;;5131836;28;20221;-88
2023/12/21 06:23:49;;;;;;;10.20;9.90;;;5.90;99.90;;;;;;5124240;27;20243;-88
2023/12/21 06:26:17;;;;;;;9.83;9.53;;;5.90;99.90;;;;;;5123815;28;20220;-88
2023/12/21 06:28:46;;;;;;;10.33;10.03;;;6.00;99.90;;;;;;5127354;28;20224;-88
2023/12/21 06:31:17;;;;;;;10.60;10.30;;;6.00;99.90;;;;;;5124601;28;20225;-88
2023/12/21 06:39:19;;;;;;;10.70;10.40;;;6.10;99.90;;;;;;5126333;27;20262;-89
2023/12/21 06:41:48;;;;;;;10.63;10.33;;;6.10;99.90;;;;;;5128692;28;20228;-88
2023/12/21 06:44:28;;;;;;;10.67;10.37;;;6.20;99.90;;;;;;5126704;28;20283;-88
2023/12/21 06:52:21;;;;;;;10.80;10.50;;;6.20;99.90;;;;;;5126747;28;20297;-89
2023/12/21 06:57:38;;;;;;;10.70;10.40;;;6.30;99.90;;;;;;5126605;28;20209;-88
2023/12/21 07:02:54;;;;;;;10.97;10.67;;;6.30;99.90;;;;;;5122715;28;20233;-88
2023/12/21 07:13:55;;;;;;;10.80;10.50;;;6.30;99.90;;;;;;5122235;28;20236;-89
2023/12/21 07:16:32;;;;;;;10.73;10.43;;;6.30;99.90;;;;;;5127734;28;20248;-89
2023/12/21 07:30:21;;;;;;;11.00;10.70;;;6.30;99.90;;;;;;5109317;28;20222;-88
2023/12/21 07:33:00;;;;;;;11.23;10.83;;;6.30;99.90;;;;;;5109885;28;20235;-85
2023/12/21 07:41:00;;;;;;;10.73;10.43;;;6.30;99.90;;;;;;5108111;28;20225;-88
2023/12/21 07:43:30;;;;;;;10.80;10.50;;;6.30;99.90;;;;;;5108310;28;20237;-87
2023/12/21 07:46:01;;;;;;;10.90;10.60;;;6.30;99.90;;;;;;5108651;28;20234;-88
2023/12/21 07:48:32;;;;;;;10.60;10.30;;;6.30;99.90;;;;;;5108829;28;20316;-88
2023/12/21 07:51:00;;;;;;;10.30;10.00;;;6.20;99.90;;;;;;5111376;28;20214;-88
2023/12/21 07:53:30;;;;;;;10.40;10.10;;;6.20;99.90;;;;;;5120895;28;20248;-87
2023/12/21 07:55:58;;;;;;;10.20;9.90;;;6.20;99.90;;;;;;5113821;28;20228;-88
2023/12/21 07:58:35;;;;;;;10.10;9.80;;;6.10;99.90;;;;;;5113651;28;20252;-88
2023/12/21 08:01:05;;;;;;;10.10;9.80;;;6.10;99.90;;;;;;5117214;28;20283;-86
2023/12/21 08:03:44;;;;;;;10.00;9.70;;;6.10;99.90;;;;;;5111645;28;20349;-88
2023/12/21 08:12:01;;;;;;;10.10;9.80;;;6.10;99.90;;;;;;5114404;28;20232;-88
2023/12/21 08:14:37;;;;;;;10.47;10.17;;;6.10;99.90;;;;;;5121859;27;20233;-89
2023/12/21 08:20:01;;;;;;;9.80;9.50;;;6.10;99.90;;;;;;5120795;27;20245;-86
2023/12/21 08:22:29;;;;;;;10.10;9.80;;;6.10;99.90;;;;;;5117743;28;20241;-87
2023/12/21 08:27:46;;;;;;;10.40;10.10;;;6.10;99.90;;;;;;5112820;28;20239;-86
2023/12/21 08:30:16;;;;;;;10.40;10.10;;;6.20;99.90;;;;;;5113627;28;20246;-87
2023/12/21 08:32:47;;;;;;;9.77;9.47;;;6.20;99.90;;;;;;5112882;28;20251;-87
2023/12/21 08:35:16;;;;;;;9.77;9.47;;;6.20;99.90;;;;;;5112483;28;20229;-88
2023/12/21 08:37:47;;;;;;;10.33;10.03;;;6.20;99.90;;;;;;5113911;28;20240;-90
2023/12/21 08:43:00;;;;;;;10.10;9.80;;;6.30;99.90;;;;;;5108770;28;20278;-89
2023/12/21 08:45:38;;;;;;;10.10;9.80;;;6.30;99.90;;;;;;5111304;28;20232;-89
2023/12/21 08:48:08;;;;;;;10.20;9.90;;;6.30;99.90;;;;;;5111402;28;20240;-88
2023/12/21 08:50:46;;;;;;;10.33;10.03;;;6.30;99.90;;;;;;5111903;28;20230;-87
2023/12/21 08:53:15;;;;;;;9.97;9.67;;;6.30;99.90;;;;;;5110918;28;20229;-85
2023/12/21 08:55:48;;;;;;;9.80;9.50;;;6.30;99.90;;;;;;5110978;28;20228;-86
2023/12/21 08:58:15;;;;;;;10.10;9.80;;;6.40;99.90;;;;;;5111011;28;20279;-83
2023/12/21 09:00:45;;;;;;;9.47;9.17;;;6.40;99.90;;;;;;5111034;28;20229;-87
2023/12/21 09:03:13;;;;;;;9.70;9.40;;;6.40;99.90;;;;;;5109709;28;20236;-86
2023/12/21 09:05:52;;;;;;;9.90;9.60;;;6.40;99.90;;;;;;5110811;28;20316;-87
2023/12/21 09:08:21;;;;;;;9.40;9.10;;;6.50;99.90;;;;;;5111940;28;20257;-86
2023/12/21 09:16:26;;;;;;;10.03;9.73;;;6.40;99.90;;;;;;5110292;28;20279;-89
2023/12/21 09:18:54;;;;;;;9.70;9.40;;;6.40;99.90;;;;;;5110755;28;20222;-88
2023/12/21 09:21:25;;;;;;;9.50;9.20;;;6.50;99.90;;;;;;5110550;28;20259;-88
2023/12/21 09:23:52;;;;;;;9.50;9.20;;;6.50;99.90;;;;;;5111630;28;20224;-88
2023/12/21 09:31:49;;;;;;;10.00;9.70;;;6.50;99.90;;;;;;5108460;28;20660;-87
2023/12/21 09:34:17;;;;;;;9.93;9.63;;;6.50;99.90;;;;;;5110094;28;20234;-88
2023/12/21 09:36:50;;;;;;;9.77;9.47;;;6.50;99.90;;;;;;5110055;28;20233;-88
2023/12/21 09:39:17;;;;;;;9.67;9.37;;;6.60;99.90;;;;;;5109675;28;20222;-88
2023/12/21 09:41:49;;;;;;;9.60;9.30;;;6.60;99.90;;;;;;5109933;28;20225;-87
2023/12/21 09:44:24;;;;;;;9.60;9.30;;;6.60;99.90;;;;;;5109653;28;20252;-87
2023/12/21 09:46:53;;;;;;;9.90;9.60;;;6.60;99.90;;;;;;5112330;28;20290;-88
2023/12/21 09:49:22;;;;;;;9.80;9.50;;;6.70;99.90;;;;;;5112100;28;21130;-88
2023/12/21 09:51:52;;;;;;;9.70;9.40;;;6.70;99.90;;;;;;5117022;27;20221;-87
2023/12/21 09:54:24;;;;;;;9.80;9.50;;;6.70;99.90;;;;;;5119899;28;20232;-89
2023/12/21 09:59:48;;;;;;;10.20;9.90;;;6.70;99.90;;;;;;5112793;28;20221;-88
2023/12/21 10:02:17;;;;;;;9.73;9.43;;;6.80;99.90;;;;;;5110439;28;20231;-89
2023/12/21 10:04:48;;;;;;;9.87;9.57;;;6.80;99.90;;;;;;5109514;28;20256;-88
2023/12/21 10:07:23;;;;;;;9.83;9.53;;;6.80;99.90;;;;;;5111939;28;20236;-87
2023/12/21 10:13:19;;;;;;;10.17;9.87;;;6.80;99.90;;;;;;5107520;28;20237;-89
2023/12/21 10:18:52;;;;;;;10.20;9.90;;;6.80;99.90;;;;;;5112320;28;20217;-89
2023/12/21 10:26:54;;;;;;;10.00;9.70;;;6.90;99.90;;;;;;5094338;28;20312;-87
2023/12/21 10:32:11;;;;;;;9.70;9.40;;;6.90;99.90;;;;;;5112044;28;20225;-87
2023/12/21 10:34:41;;;;;;;10.20;9.90;;;6.90;99.90;;;;;;5109732;28;20263;-88
2023/12/21 10:40:01;;;;;;;10.00;9.70;;;6.90;99.90;;;;;;5108945;28;20233;-87
2023/12/21 10:42:38;;;;;;;10.20;9.90;;;6.90;99.90;;;;;;5109268;28;20319;-87
2023/12/21 10:48:19;;;;;;;10.00;9.70;;;7.00;99.90;;;;;;5111474;28;20225;-88
2023/12/21 10:50:57;;;;;;;10.10;9.80;;;7.00;99.90;;;;;;5111715;28;20231;-87
2023/12/21 10:53:29;;;;;;;10.33;10.03;;;7.00;99.90;;;;;;5110399;28;20267;-87
2023/12/21 10:58:47;;;;;;;9.80;9.50;;;7.20;99.90;;;;;;5110238;28;20268;-88
2023/12/21 11:04:10;;;;;;;10.60;10.30;;;7.20;99.90;;;;;;5109847;28;20233;-88
2023/12/21 11:06:47;;;;;;;10.57;10.27;;;7.30;99.90;;;;;;5109285;28;20251;-89
2023/12/21 11:09:25;;;;;;;9.80;9.50;;;7.30;99.90;;;;;;5109501;28;20281;-88
2023/12/21 11:11:59;;;;;;;9.83;9.53;;;7.30;99.90;;;;;;5109474;28;20288;-88
2023/12/21 11:23:20;;;;;;;10.20;9.90;;;7.40;99.90;;;;;;5107243;28;20225;-88
2023/12/21 11:37:40;;;;;;;9.90;9.60;;;7.60;99.90;;;;;;5124758;28;20332;-87
2023/12/21 11:47:39;;;;;;;10.53;10.23;;;7.80;99.90;;;;;;5065860;28;20286;-93
2023/12/21 11:57:30;;;;;;;10.60;10.30;;;8.00;99.90;;;;;;5078622;28;20207;-90
2023/12/21 12:02:55;;;;;;;10.53;10.23;;;8.00;99.90;;;;;;5112939;28;20222;-87
2023/12/21 12:05:28;;;;;;;10.60;10.30;;;8.00;99.90;;;;;;5139158;22;20225;-82
2023/12/21 12:08:02;;;;;;;10.40;10.10;;;8.10;99.90;;;;;;5116284;28;20217;-84
2023/12/21 12:10:30;;;;;;;10.60;10.30;;;8.00;99.90;;;;;;5116021;28;20232;-85
2023/12/21 12:12:58;;;;;;;10.20;9.90;;;8.00;99.90;;;;;;5109308;28;20229;-83
2023/12/21 12:15:27;;;;;;;9.97;9.67;;;8.00;99.90;;;;;;5127365;28;20251;-83
2023/12/21 12:17:54;;;;;;;9.70;9.40;;;8.00;99.90;;;;;;5112118;28;20213;-83
2023/12/21 12:20:22;;;;;;;9.40;9.10;;;8.00;99.90;;;;;;5108508;28;20245;-82
2023/12/21 12:22:52;;;;;;;9.27;8.97;;;7.90;99.90;;;;;;5117630;28;20289;-82
2023/12/21 12:25:21;;;;;;;9.23;8.93;;;7.90;99.90;;;;;;5114211;28;20373;-82
2023/12/21 12:27:52;;;;;;;9.50;9.20;;;7.80;99.90;;;;;;5113035;28;20252;-82
2023/12/21 12:30:19;;;;;;;9.47;9.17;;;7.80;99.90;;;;;;5116648;28;20229;-85
2023/12/21 12:32:49;;;;;;;9.30;9.00;;;7.80;99.90;;;;;;5108475;28;20256;-84
2023/12/21 12:35:17;;;;;;;9.20;8.90;;;7.80;99.90;;;;;;5108242;28;20233;-83
2023/12/21 12:37:44;;;;;;;9.03;8.73;;;7.70;99.90;;;;;;5107505;28;20229;-84
2023/12/21 12:40:13;;;;;;;9.10;8.80;;;7.70;99.90;;;;;;5109128;28;20233;-82
2023/12/21 12:42:42;;;;;;;9.17;8.87;;;7.60;99.90;;;;;;5116547;28;20224;-83
2023/12/21 12:45:12;;;;;;;9.20;8.90;;;7.60;99.90;;;;;;5119328;28;20237;-83
2023/12/21 12:47:41;;;;;;;9.40;9.10;;;7.60;99.90;;;;;;5127219;28;20254;-83
2023/12/21 12:50:11;;;;;;;8.90;8.60;;;7.50;99.90;;;;;;5126176;28;20229;-86
2023/12/21 12:52:41;;;;;;;9.13;8.83;;;7.50;99.90;;;;;;5117407;28;20225;-84
2023/12/21 12:55:11;;;;;;;9.53;9.23;;;7.50;99.90;;;;;;5121885;28;20225;-82
2023/12/21 12:57:38;;;;;;;9.63;9.33;;;7.50;99.90;;;;;;5122784;28;20228;-83
2023/12/21 13:00:12;;;;;;;9.13;8.83;;;7.50;99.90;;;;;;5126553;28;20229;-85
2023/12/21 13:02:40;;;;;;;9.10;8.80;;;7.50;99.90;;;;;;5118783;28;20243;-83
2023/12/21 13:05:09;;;;;;;9.27;8.97;;;7.50;99.90;;;;;;5126286;28;20239;-83
2023/12/21 13:07:37;;;;;;;8.97;8.67;;;7.50;99.90;;;;;;5127600;28;20233;-81
2023/12/21 13:10:04;;;;;;;9.00;8.70;;;7.50;99.90;;;;;;5126000;28;20255;-83
2023/12/21 13:12:31;;;;;;;9.20;8.90;;;7.50;99.90;;;;;;5117339;28;20251;-82
2023/12/21 13:14:59;;;;;;;9.20;8.90;;;7.50;99.90;;;;;;5123548;28;20297;-82
2023/12/21 13:17:29;;;;;;;9.43;9.13;;;7.50;99.90;;;;;;5118427;28;20221;-82
2023/12/21 13:19:56;;;;;;;9.17;8.87;;;7.50;99.90;;;;;;5124701;28;20240;-83
2023/12/21 13:22:24;;;;;;;9.13;8.83;;;7.50;99.90;;;;;;5119736;28;20314;-82
2023/12/21 13:24:51;;;;;;;9.20;8.90;;;7.60;99.90;;;;;;5124739;28;20224;-82
2023/12/21 13:27:19;;;;;;;9.30;9.00;;;7.60;99.90;;;;;;5126101;28;20286;-81
2023/12/21 13:29:47;;;;;;;9.30;9.00;;;7.60;99.90;;;;;;5117374;28;20244;-82
2023/12/21 13:32:15;;;;;;;9.33;9.03;;;7.70;99.90;;;;;;5118247;28;20302;-83
2023/12/21 13:34:44;;;;;;;9.53;9.23;;;7.70;99.90;;;;;;5126234;28;20247;-83
2023/12/21 13:37:12;;;;;;;9.70;9.40;;;7.70;99.90;;;;;;5125995;28;20241;-82
2023/12/21 13:39:39;;;;;;;9.50;9.20;;;7.80;99.90;;;;;;5125946;28;20232;-82
2023/12/21 13:42:08;;;;;;;9.80;9.50;;;7.80;99.90;;;;;;5114119;28;20991;-82
2023/12/21 13:44:36;;;;;;;9.73;9.43;;;7.80;99.90;;;;;;5122379;28;20236;-82
2023/12/21 13:47:04;;;;;;;9.87;9.57;;;7.90;99.90;;;;;;5117301;28;20263;-82
2023/12/21 13:49:31;;;;;;;9.40;9.10;;;7.90;99.90;;;;;;5125745;27;20247;-81
2023/12/21 13:52:00;;;;;;;9.83;9.53;;;8.00;99.90;;;;;;5116669;28;20254;-80
2023/12/21 13:54:27;;;;;;;10.07;9.77;;;8.00;99.90;;;;;;5124570;28;20251;-80
2023/12/21 13:56:55;;;;;;;10.20;9.90;;;8.10;99.90;;;;;;5128400;28;20204;-79
2023/12/21 13:59:22;;;;;;;9.60;9.30;;;8.10;99.90;;;;;;5112799;28;20233;-84
2023/12/21 14:01:50;;;;;;;9.50;9.20;;;8.10;99.90;;;;;;5122513;28;20237;-81
2023/12/21 14:04:21;;;;;;;9.23;8.93;;;8.10;99.90;;;;;;5117923;28;20304;-86
2023/12/21 14:06:48;;;;;;;9.50;9.20;;;8.10;99.90;;;;;;5124054;28;20309;-83
2023/12/21 14:09:17;;;;;;;9.57;9.27;;;8.20;99.90;;;;;;5119123;28;20226;-82
2023/12/21 14:11:44;;;;;;;9.10;8.80;;;8.20;99.90;;;;;;5112580;28;20242;-82
2023/12/21 14:14:12;;;;;;;8.63;8.43;;;8.20;99.90;;;;;;5124147;28;20345;-82
2023/12/21 14:16:39;;;;;;;9.20;8.90;;;8.30;99.90;;;;;;5124514;28;20274;-82
2023/12/21 14:19:07;;;;;;;9.10;8.80;;;8.30;99.90;;;;;;5123503;28;20229;-84
2023/12/21 14:21:34;;;;;;;9.17;8.87;;;8.30;99.90;;;;;;5116180;28;20239;-82
2023/12/21 14:24:02;;;;;;;9.67;9.37;;;8.40;99.90;;;;;;5117399;28;20233;-82
2023/12/21 14:26:39;;;;;;;9.60;9.30;;;8.40;99.90;;;;;;5125099;28;20225;-82
2023/12/21 14:29:06;;;;;;;9.67;9.37;;;8.50;99.90;;;;;;5124787;28;20748;-81
2023/12/21 14:31:46;;;;;;;9.90;9.60;;;8.60;99.90;;;;;;5118223;28;20233;-82
2023/12/21 14:34:13;;;;;;;9.90;9.60;;;8.70;99.90;;;;;;5128626;28;20232;-82
2023/12/21 14:36:43;;;;;;;9.60;9.30;;;8.70;99.90;;;;;;5126224;28;20227;-83
2023/12/21 14:39:18;;;;;;;9.70;9.40;;;8.80;99.90;;;;;;5121729;28;20327;-84
2023/12/21 14:41:47;;;;;;;10.50;10.20;;;8.80;99.90;;;;;;5122885;28;20300;-82
2023/12/21 14:44:14;;;;;;;10.30;10.00;;;8.80;99.90;;;;;;5123951;28;20225;-83
2023/12/21 14:46:42;;;;;;;10.27;9.97;;;8.80;99.90;;;;;;5118679;28;20205;-81
2023/12/21 14:49:09;;;;;;;10.17;9.87;;;8.90;99.90;;;;;;5130979;28;20251;-83
2023/12/21 14:51:41;;;;;;;10.30;10.00;;;8.90;99.90;;;;;;5132220;28;20251;-82
2023/12/21 14:54:08;;;;;;;10.17;9.87;;;9.00;99.90;;;;;;5120788;28;20221;-81
2023/12/21 14:56:36;;;;;;;10.40;10.10;;;9.00;99.90;;;;;;5128380;28;20276;-82
2023/12/21 14:59:05;;;;;;;10.30;10.00;;;9.00;99.90;;;;;;5120095;28;20229;-82
2023/12/21 15:01:32;;;;;;;10.20;9.90;;;9.00;99.90;;;;;;5122416;28;20237;-81
2023/12/21 15:03:59;;;;;;;10.37;10.07;;;9.10;99.90;;;;;;5123023;28;20243;-81
2023/12/21 15:06:27;;;;;;;10.10;9.80;;;9.10;99.90;;;;;;5123818;28;20212;-83
2023/12/21 15:08:55;;;;;;;9.93;9.63;;;9.10;99.90;;;;;;5129088;28;20237;-81
2023/12/21 15:11:22;;;;;;;9.83;9.53;;;9.10;99.90;;;;;;5127991;28;20327;-82
2023/12/21 15:13:50;;;;;;;10.30;10.00;;;9.20;99.90;;;;;;5134525;28;20225;-82
2023/12/21 15:16:19;;;;;;;10.03;9.73;;;9.20;99.90;;;;;;5117842;28;20248;-81
2023/12/21 15:18:47;;;;;;;10.07;9.77;;;9.20;99.90;;;;;;5115041;28;20334;-80
2023/12/21 15:21:14;;;;;;;9.50;9.20;;;9.10;99.90;;;;;;5124442;28;20332;-81
2023/12/21 15:23:41;;;;;;;10.40;10.10;;;9.10;99.90;;;;;;5115329;28;20237;-81